createdAt,value
2022-11-28T00:00:09.120Z,94.53
2022-11-28T00:02:40.381Z,94.74
2022-11-28T00:05:12.012Z,94.95
2022-11-28T00:07:41.474Z,95.13
2022-11-28T00:10:12.166Z,95.12
2022-11-28T00:12:41.742Z,95.26
2022-11-28T00:15:12.633Z,95.35
2022-11-28T00:17:42.042Z,95.43
2022-11-28T00:20:11.570Z,95.53
2022-11-28T00:22:40.798Z,95.60
2022-11-28T00:25:10.119Z,95.56
2022-11-28T00:27:39.485Z,95.56
2022-11-28T00:30:09.771Z,95.63
2022-11-28T00:32:39.073Z,95.64
2022-11-28T00:35:08.933Z,95.64
2022-11-28T00:37:38.429Z,95.65
2022-11-28T00:40:08.590Z,95.60
2022-11-28T00:42:37.840Z,95.70
2022-11-28T00:45:07.705Z,95.60
2022-11-28T00:47:36.957Z,95.66
2022-11-28T00:50:07.226Z,95.67
2022-11-28T00:52:36.584Z,95.67
2022-11-28T00:55:06.359Z,95.69
2022-11-28T00:57:35.594Z,95.66
2022-11-28T01:00:06.867Z,95.69
2022-11-28T01:02:36.489Z,95.55
2022-11-28T01:05:06.436Z,95.61
2022-11-28T01:07:35.695Z,95.59
2022-11-28T01:10:05.524Z,95.56
2022-11-28T01:12:34.898Z,95.64
2022-11-28T01:15:06.936Z,95.62
2022-11-28T01:17:36.465Z,95.62
2022-11-28T01:20:09.097Z,95.64
2022-11-28T01:22:37.704Z,95.56
2022-11-28T01:25:07.560Z,95.54
2022-11-28T01:27:36.964Z,95.51
2022-11-28T01:30:08.013Z,95.50
2022-11-28T01:32:37.412Z,95.50
2022-11-28T01:35:07.140Z,95.47
2022-11-28T01:37:36.418Z,95.47
2022-11-28T01:40:07.229Z,95.43
2022-11-28T01:42:36.658Z,95.41
2022-11-28T01:45:14.899Z,95.31
2022-11-28T01:47:44.674Z,95.32
2022-11-28T01:50:14.658Z,95.37
2022-11-28T01:52:46.145Z,95.43
2022-11-28T01:55:17.618Z,95.45
2022-11-28T01:57:46.935Z,95.21
2022-11-28T02:00:19.248Z,95.21
2022-11-28T02:02:57.564Z,95.07
2022-11-28T02:05:27.100Z,95.13
2022-11-28T02:07:56.574Z,95.15
2022-11-28T02:10:28.953Z,95.08
2022-11-28T02:13:16.181Z,95.04
2022-11-28T02:15:57.437Z,94.79
2022-11-28T02:18:35.878Z,94.96
2022-11-28T02:21:10.992Z,94.86
2022-11-28T02:24:09.056Z,94.71
2022-11-28T02:26:46.993Z,94.69
2022-11-28T02:29:25.389Z,94.64
2022-11-28T02:32:16.020Z,94.78
2022-11-28T02:35:11.197Z,94.64
2022-11-28T02:37:58.448Z,94.52
2022-11-28T02:40:42.756Z,94.43
2022-11-28T02:43:33.307Z,94.57
2022-11-28T02:46:17.284Z,94.30
2022-11-28T02:48:52.798Z,94.38
2022-11-28T02:51:31.588Z,94.68
2022-11-28T02:54:03.582Z,94.46
2022-11-28T02:56:32.779Z,94.32
2022-11-28T02:59:02.336Z,94.65
2022-11-28T03:01:37.132Z,94.58
2022-11-28T03:04:35.662Z,94.59
2022-11-28T03:07:24.832Z,94.54
2022-11-28T03:10:06.076Z,94.77
2022-11-28T03:12:56.506Z,94.60
2022-11-28T03:15:29.110Z,94.79
2022-11-28T03:18:02.437Z,94.76
2022-11-28T03:20:48.749Z,94.57
2022-11-28T03:23:24.075Z,94.82
2022-11-28T03:26:25.239Z,94.56
2022-11-28T03:29:07.310Z,94.61
2022-11-28T03:31:39.715Z,94.73
2022-11-28T03:34:11.453Z,94.80
2022-11-28T03:36:44.077Z,94.69
2022-11-28T03:39:13.674Z,94.77
2022-11-28T03:41:48.670Z,95.00
2022-11-28T03:44:21.174Z,94.88
2022-11-28T03:46:51.106Z,94.92
2022-11-28T03:49:23.504Z,95.05
2022-11-28T03:51:58.841Z,95.17
2022-11-28T03:54:40.513Z,95.33
2022-11-28T03:57:12.562Z,95.37
2022-11-28T03:59:44.285Z,95.40
2022-11-28T04:02:21.938Z,95.28
2022-11-28T04:04:54.331Z,95.43
2022-11-28T04:07:29.685Z,95.49
2022-11-28T04:10:11.472Z,95.37
2022-11-28T04:13:02.037Z,95.37
2022-11-28T04:15:51.300Z,95.25
2022-11-28T04:18:26.417Z,95.14
2022-11-28T04:21:19.981Z,95.15
2022-11-28T04:23:49.891Z,95.17
2022-11-28T04:26:27.774Z,95.02
2022-11-28T04:28:59.050Z,95.08
2022-11-28T04:31:28.625Z,95.23
2022-11-28T04:34:01.260Z,95.21
2022-11-28T04:36:29.951Z,95.29
2022-11-28T04:38:59.952Z,95.18
2022-11-28T04:41:35.507Z,95.12
2022-11-28T04:44:07.935Z,95.38
2022-11-28T04:46:40.892Z,95.37
2022-11-28T04:49:11.037Z,95.38
2022-11-28T04:51:49.116Z,95.43
2022-11-28T04:54:24.440Z,95.40
2022-11-28T04:56:57.245Z,95.29
2022-11-28T04:59:27.930Z,95.46
2022-11-28T05:01:58.440Z,95.49
2022-11-28T05:04:27.751Z,95.33
2022-11-28T05:07:08.540Z,95.34
2022-11-28T05:09:38.506Z,95.33
2022-11-28T05:12:08.237Z,95.41
2022-11-28T05:14:37.525Z,95.46
2022-11-28T05:17:07.145Z,95.41
2022-11-28T05:19:36.362Z,95.50
2022-11-28T05:22:05.589Z,95.46
2022-11-28T05:24:34.828Z,95.38
2022-11-28T05:27:04.630Z,95.45
2022-11-28T05:29:33.864Z,95.44
2022-11-28T05:32:03.363Z,95.42
2022-11-28T05:34:32.801Z,95.44
2022-11-28T05:37:02.041Z,95.47
2022-11-28T05:39:31.779Z,95.59
2022-11-28T05:42:01.007Z,95.44
2022-11-28T05:44:30.343Z,95.51
2022-11-28T05:46:59.578Z,95.57
2022-11-28T05:49:29.186Z,95.59
2022-11-28T05:51:58.571Z,95.64
2022-11-28T05:54:28.681Z,95.55
2022-11-28T05:56:58.344Z,95.57
2022-11-28T05:59:28.047Z,95.54
2022-11-28T06:01:57.359Z,95.46
2022-11-28T06:04:26.970Z,95.44
2022-11-28T06:06:56.302Z,95.45
2022-11-28T06:09:26.385Z,95.47
2022-11-28T06:11:55.798Z,95.54
2022-11-28T06:14:25.074Z,95.65
2022-11-28T06:16:57.102Z,95.74
2022-11-28T06:19:26.441Z,95.69
2022-11-28T06:21:56.411Z,95.62
2022-11-28T06:24:25.802Z,95.60
2022-11-28T06:26:55.315Z,95.72
2022-11-28T06:29:24.689Z,95.64
2022-11-28T06:31:54.172Z,95.63
2022-11-28T06:34:24.461Z,95.64
2022-11-28T06:36:53.682Z,95.76
2022-11-28T06:39:22.921Z,95.74
2022-11-28T06:41:52.156Z,95.76
2022-11-28T06:44:21.782Z,95.77
2022-11-28T06:46:51.141Z,95.70
2022-11-28T06:49:20.577Z,95.64
2022-11-28T06:51:49.844Z,95.74
2022-11-28T06:54:19.158Z,95.76
2022-11-28T06:56:48.883Z,95.77
2022-11-28T06:59:18.269Z,95.82
2022-11-28T07:01:47.808Z,95.78
2022-11-28T07:04:17.326Z,95.71
2022-11-28T07:06:46.924Z,95.82
2022-11-28T07:09:16.515Z,95.77
2022-11-28T07:11:46.048Z,95.74
2022-11-28T07:14:15.847Z,95.77
2022-11-28T07:16:45.617Z,95.82
2022-11-28T07:19:15.262Z,95.81
2022-11-28T07:21:44.565Z,95.89
2022-11-28T07:24:14.907Z,95.90
2022-11-28T07:26:44.341Z,95.90
2022-11-28T07:29:18.604Z,95.97
2022-11-28T07:31:48.607Z,96.01
2022-11-28T07:34:18.242Z,96.10
2022-11-28T07:36:47.858Z,96.14
2022-11-28T07:39:17.960Z,96.15
2022-11-28T07:41:47.404Z,96.16
2022-11-28T07:44:20.142Z,96.10
2022-11-28T07:46:48.780Z,96.16
2022-11-28T07:49:18.356Z,96.16
2022-11-28T07:51:47.563Z,96.17
2022-11-28T07:54:16.979Z,96.15
2022-11-28T07:59:17.407Z,96.25
2022-11-28T08:01:46.678Z,96.20
2022-11-28T08:04:16.140Z,96.22
2022-11-28T08:06:45.589Z,96.22
2022-11-28T08:09:15.226Z,96.21
2022-11-28T08:11:44.451Z,96.29
2022-11-28T08:14:14.551Z,96.33
2022-11-28T08:16:45.980Z,96.40
2022-11-28T08:19:15.540Z,96.44
2022-11-28T08:21:44.883Z,96.44
2022-11-28T08:24:14.911Z,96.42
2022-11-28T08:26:44.251Z,96.37
2022-11-28T08:29:13.747Z,96.40
2022-11-28T08:31:43.543Z,96.41
2022-11-28T08:34:12.953Z,96.42
2022-11-28T08:36:43.579Z,96.44
2022-11-28T08:39:28.534Z,96.46
2022-11-28T08:41:44.193Z,96.51
2022-11-28T08:44:13.897Z,96.50
2022-11-28T08:46:43.416Z,96.52
2022-11-28T08:49:12.957Z,96.57
2022-11-28T08:51:42.250Z,96.52
2022-11-28T08:54:11.651Z,96.50
2022-11-28T08:56:40.868Z,96.50
2022-11-28T08:59:11.022Z,96.49
2022-11-28T09:01:40.364Z,96.50
2022-11-28T09:04:09.981Z,96.56
2022-11-28T09:06:42.254Z,96.50
2022-11-28T09:09:11.796Z,96.49
2022-11-28T09:11:41.321Z,96.50
2022-11-28T09:14:11.099Z,96.47
2022-11-28T09:16:41.658Z,96.48
2022-11-28T09:19:11.236Z,96.48
2022-11-28T09:21:41.656Z,96.48
2022-11-28T09:24:12.891Z,96.44
2022-11-28T09:26:42.794Z,96.44
2022-11-28T09:29:12.038Z,96.47
2022-11-28T09:31:46.966Z,96.41
2022-11-28T09:34:12.723Z,96.44
2022-11-28T09:36:42.345Z,96.47
2022-11-28T09:39:11.723Z,96.44
2022-11-28T09:41:47.081Z,96.41
2022-11-28T09:44:19.661Z,96.49
2022-11-28T09:46:48.642Z,96.41
2022-11-28T09:49:39.998Z,96.43
2022-11-28T09:52:07.427Z,96.35
2022-11-28T09:54:52.080Z,96.26
2022-11-28T09:57:24.457Z,96.28
2022-11-28T09:59:53.858Z,96.30
2022-11-28T10:02:44.966Z,96.40
2022-11-28T10:05:38.991Z,96.29
2022-11-28T10:08:27.857Z,96.19
2022-11-28T10:11:03.935Z,96.05
2022-11-28T10:14:06.185Z,96.09
2022-11-28T10:16:23.029Z,96.00
2022-11-28T10:18:58.581Z,96.04
2022-11-28T10:21:47.369Z,96.00
2022-11-28T10:24:22.195Z,95.94
2022-11-28T10:27:00.309Z,95.80
2022-11-28T10:29:49.460Z,95.70
2022-11-28T10:32:21.888Z,95.68
2022-11-28T10:35:02.595Z,95.69
2022-11-28T10:37:33.488Z,95.54
2022-11-28T10:40:11.926Z,95.58
2022-11-28T10:42:44.352Z,95.48
2022-11-28T10:45:34.955Z,95.51
2022-11-28T10:48:37.312Z,95.65
2022-11-28T10:50:53.767Z,95.63
2022-11-28T10:53:26.516Z,95.62
2022-11-28T10:56:09.897Z,95.71
2022-11-28T10:58:47.856Z,95.54
2022-11-28T11:01:17.227Z,95.68
2022-11-28T11:03:46.774Z,95.45
2022-11-28T11:06:15.984Z,95.60
2022-11-28T11:08:46.982Z,95.52
2022-11-28T11:11:22.061Z,95.56
2022-11-28T11:14:12.408Z,95.68
2022-11-28T11:16:50.662Z,95.47
2022-11-28T11:19:25.103Z,95.24
2022-11-28T11:22:00.577Z,95.24
2022-11-28T11:24:29.928Z,95.03
2022-11-28T11:27:18.319Z,95.02
2022-11-28T11:29:51.379Z,95.07
2022-11-28T11:32:29.912Z,94.85
2022-11-28T11:35:00.533Z,94.88
2022-11-28T11:37:35.229Z,95.04
2022-11-28T11:40:07.997Z,95.06
2022-11-28T11:42:37.398Z,95.24
2022-11-28T11:45:36.048Z,94.96
2022-11-28T11:48:05.569Z,95.06
2022-11-28T11:50:36.446Z,94.90
2022-11-28T11:53:14.092Z,95.02
2022-11-28T11:55:49.320Z,94.98
2022-11-28T11:58:21.680Z,95.08
2022-11-28T12:00:53.010Z,95.08
2022-11-28T12:03:28.341Z,95.08
2022-11-28T12:06:13.714Z,95.05
2022-11-28T12:08:34.095Z,94.76
2022-11-28T12:11:15.605Z,94.73
2022-11-28T12:13:45.259Z,94.75
2022-11-28T12:16:36.441Z,94.53
2022-11-28T12:19:14.576Z,94.74
2022-11-28T12:21:53.097Z,94.54
2022-11-28T12:24:26.038Z,94.35
2022-11-28T12:27:01.460Z,94.47
2022-11-28T12:29:52.159Z,94.21
2022-11-28T12:32:27.902Z,94.31
2022-11-28T12:35:24.740Z,94.08
2022-11-28T12:38:10.636Z,94.00
2022-11-28T12:40:48.815Z,93.98
2022-11-28T12:43:33.454Z,94.05
2022-11-28T12:46:18.457Z,94.01
2022-11-28T12:49:11.130Z,94.31
2022-11-28T12:51:46.274Z,93.98
2022-11-28T12:54:30.521Z,93.84
2022-11-28T12:57:05.756Z,93.51
2022-11-28T12:59:38.303Z,93.33
2022-11-28T13:02:35.126Z,93.11
2022-11-28T13:05:24.199Z,93.11
2022-11-28T13:08:18.088Z,92.89
2022-11-28T13:11:07.018Z,93.06
2022-11-28T13:13:42.117Z,93.17
2022-11-28T13:16:34.026Z,93.07
2022-11-28T13:19:24.827Z,91.79
2022-11-28T13:21:57.378Z,91.48
2022-11-28T13:24:38.782Z,91.66
2022-11-28T13:27:36.571Z,90.02
2022-11-28T13:30:20.379Z,90.28
2022-11-28T13:33:09.297Z,90.26
2022-11-28T13:35:40.428Z,90.25
2022-11-28T13:38:50.497Z,89.38
2022-11-28T13:41:01.458Z,89.77
2022-11-28T13:43:54.767Z,89.04
2022-11-28T13:46:24.490Z,89.57
2022-11-28T13:49:19.782Z,89.51
2022-11-28T13:51:33.510Z,90.15
2022-11-28T13:54:24.283Z,90.23
2022-11-28T13:57:19.091Z,90.23
2022-11-28T13:59:51.635Z,89.99
2022-11-28T14:02:36.851Z,90.13
2022-11-28T14:05:09.187Z,90.12
2022-11-28T14:07:38.997Z,89.90
2022-11-28T14:10:17.348Z,89.76
2022-11-28T14:12:58.069Z,89.76
2022-11-28T14:15:56.550Z,90.27
2022-11-28T14:18:55.833Z,89.66
2022-11-28T14:21:06.039Z,89.59
2022-11-28T14:23:48.400Z,89.82
2022-11-28T14:26:38.002Z,89.87
2022-11-28T14:29:22.448Z,90.02
2022-11-28T14:32:21.689Z,90.38
2022-11-28T14:34:44.947Z,90.39
2022-11-28T14:37:30.147Z,90.16
2022-11-28T14:40:00.224Z,89.97
2022-11-28T14:42:59.768Z,89.81
2022-11-28T14:45:44.525Z,90.27
2022-11-28T14:48:26.537Z,90.93
2022-11-28T14:51:01.387Z,91.18
2022-11-28T14:53:38.534Z,91.80
2022-11-28T14:56:25.876Z,91.94
2022-11-28T14:58:57.534Z,92.07
2022-11-28T15:01:35.916Z,92.61
2022-11-28T15:04:14.392Z,92.73
2022-11-28T15:06:44.710Z,92.96
2022-11-28T15:09:29.740Z,92.71
2022-11-28T15:12:08.507Z,92.40
2022-11-28T15:14:39.839Z,92.88
2022-11-28T15:17:12.744Z,92.94
2022-11-28T15:19:47.423Z,92.77
2022-11-28T15:22:36.228Z,92.72
2022-11-28T15:25:07.353Z,93.01
2022-11-28T15:27:36.692Z,93.15
2022-11-28T15:30:08.456Z,93.24
2022-11-28T15:32:37.931Z,93.28
2022-11-28T15:35:12.484Z,93.35
2022-11-28T15:37:38.585Z,93.46
2022-11-28T15:40:08.951Z,93.70
2022-11-28T15:42:38.936Z,93.98
2022-11-28T15:45:11.447Z,94.27
2022-11-28T15:47:41.042Z,94.36
2022-11-28T15:50:17.291Z,94.42
2022-11-28T15:53:16.618Z,94.55
2022-11-28T15:55:46.209Z,94.63
2022-11-28T15:58:29.130Z,94.72
2022-11-28T16:01:07.171Z,94.88
2022-11-28T16:03:39.970Z,94.82
2022-11-28T16:06:11.133Z,95.05
2022-11-28T16:08:49.030Z,95.38
2022-11-28T16:11:20.339Z,95.34
2022-11-28T16:13:49.930Z,95.20
2022-11-28T16:16:25.221Z,95.33
2022-11-28T16:19:06.169Z,95.28
2022-11-28T16:21:40.896Z,95.19
2022-11-28T16:24:36.935Z,95.25
2022-11-28T16:27:04.437Z,95.33
2022-11-28T16:29:36.212Z,95.47
2022-11-28T16:32:10.514Z,95.61
2022-11-28T16:34:48.177Z,95.61
2022-11-28T16:37:23.256Z,95.61
2022-11-28T16:40:07.039Z,95.69
2022-11-28T16:42:36.570Z,95.60
2022-11-28T16:45:17.496Z,95.62
2022-11-28T16:47:47.303Z,95.58
2022-11-28T16:50:25.324Z,95.65
2022-11-28T16:52:57.851Z,95.54
2022-11-28T16:55:37.056Z,95.52
2022-11-28T16:58:18.865Z,95.39
2022-11-28T17:01:02.347Z,95.48
2022-11-28T17:03:43.975Z,95.46
2022-11-28T17:06:16.633Z,95.44
2022-11-28T17:08:45.331Z,95.47
2022-11-28T17:11:15.205Z,95.49
2022-11-28T17:13:44.711Z,95.45
2022-11-28T17:16:19.647Z,95.47
2022-11-28T17:18:49.637Z,95.39
2022-11-28T17:21:21.735Z,95.36
2022-11-28T17:23:51.069Z,95.37
2022-11-28T17:26:20.282Z,95.48
2022-11-28T17:28:49.635Z,95.40
2022-11-28T17:31:19.326Z,95.43
2022-11-28T17:33:48.635Z,95.36
2022-11-28T17:36:17.901Z,95.26
2022-11-28T17:38:47.384Z,95.14
2022-11-28T17:41:16.594Z,95.08
2022-11-28T17:43:46.002Z,95.17
2022-11-28T17:46:15.448Z,95.13
2022-11-28T17:48:44.698Z,94.95
2022-11-28T17:51:14.394Z,94.92
2022-11-28T17:53:44.183Z,94.93
2022-11-28T17:56:14.571Z,94.85
2022-11-28T17:58:45.067Z,94.62
2022-11-28T18:01:17.679Z,94.74
2022-11-28T18:03:46.460Z,94.59
2022-11-28T18:06:17.554Z,94.59
2022-11-28T18:08:49.149Z,94.55
2022-11-28T18:11:20.127Z,94.71
2022-11-28T18:13:50.082Z,94.75
2022-11-28T18:16:22.948Z,94.78
2022-11-28T18:18:53.619Z,94.88
2022-11-28T18:21:22.988Z,94.91
2022-11-28T18:23:52.476Z,95.02
2022-11-28T18:26:23.975Z,95.08
2022-11-28T18:28:54.106Z,95.17
2022-11-28T18:31:27.401Z,95.26
2022-11-28T18:34:01.467Z,95.24
2022-11-28T18:36:28.390Z,95.31
2022-11-28T18:39:00.019Z,95.32
2022-11-28T18:41:30.147Z,95.39
2022-11-28T18:44:01.076Z,95.42
2022-11-28T18:46:31.323Z,95.49
2022-11-28T18:49:00.882Z,95.50
2022-11-28T18:51:33.219Z,95.62
2022-11-28T18:54:05.121Z,95.75
2022-11-28T18:56:35.919Z,95.70
2022-11-28T18:59:07.269Z,95.72
2022-11-28T19:01:38.398Z,95.79
2022-11-28T19:04:11.103Z,95.81
2022-11-28T19:06:40.404Z,95.89
2022-11-28T19:09:13.026Z,95.89
2022-11-28T19:11:43.551Z,95.92
2022-11-28T19:14:17.788Z,95.88
2022-11-28T19:16:49.609Z,95.83
2022-11-28T19:19:19.533Z,95.86
2022-11-28T19:21:50.513Z,95.88
2022-11-28T19:24:20.048Z,95.89
2022-11-28T19:26:51.123Z,95.93
2022-11-28T19:29:20.641Z,96.00
2022-11-28T19:31:50.317Z,96.06
2022-11-28T19:34:20.740Z,96.06
2022-11-28T19:36:51.857Z,96.08
2022-11-28T19:39:24.979Z,96.13
2022-11-28T19:41:57.050Z,96.10
2022-11-28T19:44:29.246Z,96.15
2022-11-28T19:46:58.816Z,96.11
2022-11-28T19:49:29.425Z,96.15
2022-11-28T19:51:58.935Z,96.13
2022-11-28T19:54:28.932Z,96.14
2022-11-28T19:56:58.238Z,96.07
2022-11-28T19:59:28.897Z,96.16
2022-11-28T20:01:59.399Z,96.13
2022-11-28T20:04:29.012Z,96.22
2022-11-28T20:06:58.615Z,96.24
2022-11-28T20:09:28.197Z,96.32
2022-11-28T20:11:57.646Z,96.46
2022-11-28T20:14:28.838Z,96.54
2022-11-28T20:17:09.838Z,96.52
2022-11-28T20:19:39.158Z,96.40
2022-11-28T20:22:08.729Z,96.46
2022-11-28T20:24:37.938Z,96.48
2022-11-28T20:27:07.500Z,96.59
2022-11-28T20:29:36.749Z,96.59
2022-11-28T20:32:06.169Z,96.58
2022-11-28T20:34:35.666Z,96.49
2022-11-28T20:37:05.586Z,96.50
2022-11-28T20:39:34.936Z,96.65
2022-11-28T20:42:04.781Z,96.67
2022-11-28T20:44:34.161Z,96.69
2022-11-28T20:47:04.209Z,96.66
2022-11-28T20:49:33.657Z,96.76
2022-11-28T20:52:02.922Z,96.77
2022-11-28T20:54:32.201Z,96.78
2022-11-28T20:59:32.740Z,96.78
2022-11-28T21:02:02.198Z,96.81
2022-11-28T21:04:31.659Z,96.79
2022-11-28T21:07:01.129Z,96.92
2022-11-28T21:09:30.513Z,96.88
2022-11-28T21:11:59.876Z,96.90
2022-11-28T21:14:30.186Z,96.91
2022-11-28T21:16:59.842Z,96.89
2022-11-28T21:19:29.191Z,96.87
2022-11-28T21:21:58.578Z,96.88
2022-11-28T21:24:28.053Z,96.91
2022-11-28T21:26:57.379Z,96.87
2022-11-28T21:29:26.626Z,96.86
2022-11-28T21:31:55.989Z,96.79
2022-11-28T21:34:25.465Z,96.81
2022-11-28T21:36:55.164Z,96.80
2022-11-28T21:39:24.497Z,96.82
2022-11-28T21:41:53.786Z,96.97
2022-11-28T21:44:23.032Z,97.12
2022-11-28T21:46:52.394Z,97.16
2022-11-28T21:49:21.658Z,97.15
2022-11-28T21:51:53.200Z,97.15
2022-11-28T21:54:23.540Z,97.19
2022-11-28T21:56:53.271Z,97.29
2022-11-28T21:59:23.255Z,97.25
2022-11-28T22:01:53.354Z,97.26
2022-11-28T22:04:23.309Z,97.27
2022-11-28T22:06:52.623Z,97.26
2022-11-28T22:09:21.964Z,97.37
2022-11-28T22:11:51.178Z,97.46
2022-11-28T22:14:23.996Z,97.52
2022-11-28T22:16:53.285Z,97.54
2022-11-28T22:19:22.981Z,97.52
2022-11-28T22:21:54.624Z,97.51
2022-11-28T22:24:24.500Z,97.51
2022-11-28T22:26:55.223Z,97.48
2022-11-28T22:29:25.849Z,97.40
2022-11-28T22:31:55.718Z,97.29
2022-11-28T22:34:25.021Z,97.27
2022-11-28T22:36:54.499Z,97.25
2022-11-28T22:39:23.787Z,97.21
2022-11-28T22:41:53.356Z,97.26
2022-11-28T22:44:22.736Z,97.34
2022-11-28T22:46:52.197Z,97.35
2022-11-28T22:49:21.440Z,97.38
2022-11-28T22:51:51.012Z,97.47
2022-11-28T22:54:20.342Z,97.58
2022-11-28T22:56:51.156Z,97.61
2022-11-28T22:59:20.903Z,97.63
2022-11-28T23:01:51.030Z,97.68
2022-11-28T23:04:20.513Z,97.69
2022-11-28T23:06:50.241Z,97.71
2022-11-28T23:09:21.073Z,97.77
2022-11-28T23:11:51.367Z,97.68
2022-11-28T23:14:20.990Z,97.63
2022-11-28T23:16:50.480Z,97.66
2022-11-28T23:19:20.325Z,97.54
2022-11-28T23:21:50.970Z,97.36
2022-11-28T23:24:23.340Z,97.33
2022-11-28T23:26:54.313Z,97.25
2022-11-28T23:29:25.026Z,97.19
2022-11-28T23:31:54.461Z,97.04
2022-11-28T23:34:25.453Z,97.00
2022-11-28T23:36:54.855Z,96.93
2022-11-28T23:39:24.364Z,96.98
2022-11-28T23:41:55.565Z,96.98
2022-11-28T23:44:24.791Z,96.91
2022-11-28T23:46:54.084Z,96.93
2022-11-28T23:49:23.320Z,96.87
2022-11-28T23:51:52.544Z,96.86
2022-11-28T23:54:21.839Z,96.81
2022-11-28T23:56:51.317Z,96.82
2022-11-28T23:59:20.512Z,96.80
